sensor_id;sensor_type;location;lat;lon;timestamp;temperature;humidity
69261;DHT22;56378;52.404;20.816;2022-11-10T00:00:26;6.70;99.90
69261;DHT22;56378;52.404;20.816;2022-11-10T00:02:52;6.80;99.90
69261;DHT22;56378;52.404;20.816;2022-11-10T00:05:18;6.80;99.90
69261;DHT22;56378;52.404;20.816;2022-11-10T00:07:55;6.80;99.90
69261;DHT22;56378;52.404;20.816;2022-11-10T00:10:21;6.80;99.90
69261;DHT22;56378;52.404;20.816;2022-11-10T00:12:47;6.80;99.90
69261;DHT22;56378;52.404;20.816;2022-11-10T00:15:12;6.90;99.90
69261;DHT22;56378;52.404;20.816;2022-11-10T00:18:00;6.90;99.90
69261;DHT22;56378;52.404;20.816;2022-11-10T00:20:26;6.80;99.90
69261;DHT22;56378;52.404;20.816;2022-11-10T00:22:58;6.90;99.90
69261;DHT22;56378;52.404;20.816;2022-11-10T00:25:40;6.80;99.90
69261;DHT22;56378;52.404;20.816;2022-11-10T00:28:06;6.90;99.90
69261;DHT22;56378;52.404;20.816;2022-11-10T00:30:32;6.80;99.90
69261;DHT22;56378;52.404;20.816;2022-11-10T00:32:57;6.80;99.90
69261;DHT22;56378;52.404;20.816;2022-11-10T00:35:23;6.80;99.90
69261;DHT22;56378;52.404;20.816;2022-11-10T00:37:49;6.80;99.90
69261;DHT22;56378;52.404;20.816;2022-11-10T00:40:16;6.80;99.90
69261;DHT22;56378;52.404;20.816;2022-11-10T00:42:42;6.90;99.90
69261;DHT22;56378;52.404;20.816;2022-11-10T00:45:08;6.90;99.90
69261;DHT22;56378;52.404;20.816;2022-11-10T00:47:34;6.90;99.90
69261;DHT22;56378;52.404;20.816;2022-11-10T00:50:00;6.90;99.90
69261;DHT22;56378;52.404;20.816;2022-11-10T00:52:25;6.90;99.90
69261;DHT22;56378;52.404;20.816;2022-11-10T00:54:52;6.90;99.90
69261;DHT22;56378;52.404;20.816;2022-11-10T00:57:18;7.00;99.90
69261;DHT22;56378;52.404;20.816;2022-11-10T00:59:44;7.00;99.90
69261;DHT22;56378;52.404;20.816;2022-11-10T01:02:09;7.00;99.90
69261;DHT22;56378;52.404;20.816;2022-11-10T01:04:35;7.00;99.90
69261;DHT22;56378;52.404;20.816;2022-11-10T01:07:01;7.10;99.90
69261;DHT22;56378;52.404;20.816;2022-11-10T01:09:26;7.10;99.90
69261;DHT22;56378;52.404;20.816;2022-11-10T01:11:52;7.10;99.90
69261;DHT22;56378;52.404;20.816;2022-11-10T01:14:18;7.20;99.90
69261;DHT22;56378;52.404;20.816;2022-11-10T01:16:43;7.10;99.90
69261;DHT22;56378;52.404;20.816;2022-11-10T01:19:09;7.20;99.90
69261;DHT22;56378;52.404;20.816;2022-11-10T01:21:35;7.20;99.90
69261;DHT22;56378;52.404;20.816;2022-11-10T01:24:03;7.20;99.90
69261;DHT22;56378;52.404;20.816;2022-11-10T01:26:29;7.20;99.90
69261;DHT22;56378;52.404;20.816;2022-11-10T01:28:54;7.20;99.90
69261;DHT22;56378;52.404;20.816;2022-11-10T01:31:21;7.20;99.90
69261;DHT22;56378;52.404;20.816;2022-11-10T01:33:46;7.20;99.90
69261;DHT22;56378;52.404;20.816;2022-11-10T01:36:12;7.30;99.90
69261;DHT22;56378;52.404;20.816;2022-11-10T01:38:40;7.30;99.90
69261;DHT22;56378;52.404;20.816;2022-11-10T01:41:09;7.30;99.90
69261;DHT22;56378;52.404;20.816;2022-11-10T01:43:36;7.30;99.90
69261;DHT22;56378;52.404;20.816;2022-11-10T01:46:09;7.30;99.90
69261;DHT22;56378;52.404;20.816;2022-11-10T01:51:29;7.30;99.90
69261;DHT22;56378;52.404;20.816;2022-11-10T01:54:02;7.30;99.90
69261;DHT22;56378;52.404;20.816;2022-11-10T01:56:32;7.40;99.90
69261;DHT22;56378;52.404;20.816;2022-11-10T01:59:02;7.40;99.90
69261;DHT22;56378;52.404;20.816;2022-11-10T02:01:29;7.30;99.90
69261;DHT22;56378;52.404;20.816;2022-11-10T02:04:00;7.30;99.90
69261;DHT22;56378;52.404;20.816;2022-11-10T02:06:30;7.30;99.90
69261;DHT22;56378;52.404;20.816;2022-11-10T02:08:57;7.40;99.90
69261;DHT22;56378;52.404;20.816;2022-11-10T02:11:24;7.30;99.90
69261;DHT22;56378;52.404;20.816;2022-11-10T02:13:50;7.40;99.90
69261;DHT22;56378;52.404;20.816;2022-11-10T02:16:17;7.40;99.90
69261;DHT22;56378;52.404;20.816;2022-11-10T02:18:43;7.40;99.90
69261;DHT22;56378;52.404;20.816;2022-11-10T02:21:09;7.40;99.90
69261;DHT22;56378;52.404;20.816;2022-11-10T02:23:51;7.40;99.90
69261;DHT22;56378;52.404;20.816;2022-11-10T02:26:26;7.40;99.90
69261;DHT22;56378;52.404;20.816;2022-11-10T02:28:52;7.40;99.90
69261;DHT22;56378;52.404;20.816;2022-11-10T02:31:18;7.40;99.90
69261;DHT22;56378;52.404;20.816;2022-11-10T02:33:46;7.40;99.90
69261;DHT22;56378;52.404;20.816;2022-11-10T02:36:12;7.50;99.90
69261;DHT22;56378;52.404;20.816;2022-11-10T02:38:38;7.50;99.90
69261;DHT22;56378;52.404;20.816;2022-11-10T02:41:04;7.50;99.90
69261;DHT22;56378;52.404;20.816;2022-11-10T02:43:30;7.50;99.90
69261;DHT22;56378;52.404;20.816;2022-11-10T02:46:00;7.50;99.90
69261;DHT22;56378;52.404;20.816;2022-11-10T02:48:26;7.50;99.90
69261;DHT22;56378;52.404;20.816;2022-11-10T02:50:51;7.50;99.90
69261;DHT22;56378;52.404;20.816;2022-11-10T02:53:26;7.50;99.90
69261;DHT22;56378;52.404;20.816;2022-11-10T02:55:52;7.50;99.90
69261;DHT22;56378;52.404;20.816;2022-11-10T02:58:17;7.60;99.90
69261;DHT22;56378;52.404;20.816;2022-11-10T03:00:43;7.60;99.90
69261;DHT22;56378;52.404;20.816;2022-11-10T03:03:09;7.60;99.90
69261;DHT22;56378;52.404;20.816;2022-11-10T03:05:34;7.60;99.90
69261;DHT22;56378;52.404;20.816;2022-11-10T03:08:02;7.60;99.90
69261;DHT22;56378;52.404;20.816;2022-11-10T03:10:28;7.60;99.90
69261;DHT22;56378;52.404;20.816;2022-11-10T03:12:56;7.60;99.90
69261;DHT22;56378;52.404;20.816;2022-11-10T03:15:22;7.60;99.90
69261;DHT22;56378;52.404;20.816;2022-11-10T03:17:48;7.60;99.90
69261;DHT22;56378;52.404;20.816;2022-11-10T03:20:15;7.60;99.90
69261;DHT22;56378;52.404;20.816;2022-11-10T03:22:41;7.60;99.90
69261;DHT22;56378;52.404;20.816;2022-11-10T03:25:13;7.60;99.90
69261;DHT22;56378;52.404;20.816;2022-11-10T03:27:39;7.60;99.90
69261;DHT22;56378;52.404;20.816;2022-11-10T03:30:06;7.60;99.90
69261;DHT22;56378;52.404;20.816;2022-11-10T03:32:32;7.60;99.90
69261;DHT22;56378;52.404;20.816;2022-11-10T03:34:58;7.60;99.90
69261;DHT22;56378;52.404;20.816;2022-11-10T03:37:23;7.60;99.90
69261;DHT22;56378;52.404;20.816;2022-11-10T03:39:49;7.70;99.90
69261;DHT22;56378;52.404;20.816;2022-11-10T03:42:15;7.70;99.90
69261;DHT22;56378;52.404;20.816;2022-11-10T03:44:40;7.70;99.90
69261;DHT22;56378;52.404;20.816;2022-11-10T03:47:06;7.70;99.90
69261;DHT22;56378;52.404;20.816;2022-11-10T03:49:32;7.70;99.90
69261;DHT22;56378;52.404;20.816;2022-11-10T03:51:57;7.70;99.90
69261;DHT22;56378;52.404;20.816;2022-11-10T03:54:23;7.70;99.90
69261;DHT22;56378;52.404;20.816;2022-11-10T03:56:49;7.70;99.90
69261;DHT22;56378;52.404;20.816;2022-11-10T03:59:14;7.70;99.90
69261;DHT22;56378;52.404;20.816;2022-11-10T04:01:40;7.70;99.90
69261;DHT22;56378;52.404;20.816;2022-11-10T04:04:06;7.70;99.90
69261;DHT22;56378;52.404;20.816;2022-11-10T04:06:54;7.70;99.90
69261;DHT22;56378;52.404;20.816;2022-11-10T04:09:38;7.70;99.90
69261;DHT22;56378;52.404;20.816;2022-11-10T04:12:04;7.70;99.90
69261;DHT22;56378;52.404;20.816;2022-11-10T04:14:49;7.70;99.90
69261;DHT22;56378;52.404;20.816;2022-11-10T04:17:32;7.70;99.90
69261;DHT22;56378;52.404;20.816;2022-11-10T04:19:58;7.70;99.90
69261;DHT22;56378;52.404;20.816;2022-11-10T04:22:24;7.70;99.90
69261;DHT22;56378;52.404;20.816;2022-11-10T04:25:08;7.70;99.90
69261;DHT22;56378;52.404;20.816;2022-11-10T04:27:34;7.70;99.90
69261;DHT22;56378;52.404;20.816;2022-11-10T04:30:00;7.70;99.90
69261;DHT22;56378;52.404;20.816;2022-11-10T04:32:25;7.80;99.90
69261;DHT22;56378;52.404;20.816;2022-11-10T04:34:51;7.80;99.90
69261;DHT22;56378;52.404;20.816;2022-11-10T04:37:17;7.80;99.90
69261;DHT22;56378;52.404;20.816;2022-11-10T04:39:42;7.80;99.90
69261;DHT22;56378;52.404;20.816;2022-11-10T04:42:08;7.80;99.90
69261;DHT22;56378;52.404;20.816;2022-11-10T04:44:34;7.80;99.90
69261;DHT22;56378;52.404;20.816;2022-11-10T04:47:00;7.80;99.90
69261;DHT22;56378;52.404;20.816;2022-11-10T04:49:25;7.80;99.90
69261;DHT22;56378;52.404;20.816;2022-11-10T04:51:51;7.80;99.90
69261;DHT22;56378;52.404;20.816;2022-11-10T04:54:23;7.80;99.90
69261;DHT22;56378;52.404;20.816;2022-11-10T04:56:49;7.80;99.90
69261;DHT22;56378;52.404;20.816;2022-11-10T04:59:14;7.80;99.90
69261;DHT22;56378;52.404;20.816;2022-11-10T05:01:40;7.80;99.90
69261;DHT22;56378;52.404;20.816;2022-11-10T05:04:06;7.80;99.90
69261;DHT22;56378;52.404;20.816;2022-11-10T05:06:31;7.80;99.90
69261;DHT22;56378;52.404;20.816;2022-11-10T05:08:57;7.80;99.90
69261;DHT22;56378;52.404;20.816;2022-11-10T05:11:23;7.80;99.90
69261;DHT22;56378;52.404;20.816;2022-11-10T05:13:49;7.80;99.90
69261;DHT22;56378;52.404;20.816;2022-11-10T05:16:14;7.80;99.90
69261;DHT22;56378;52.404;20.816;2022-11-10T05:18:40;7.80;99.90
69261;DHT22;56378;52.404;20.816;2022-11-10T05:21:06;7.90;99.90
69261;DHT22;56378;52.404;20.816;2022-11-10T05:23:41;7.90;99.90
69261;DHT22;56378;52.404;20.816;2022-11-10T05:26:12;7.90;99.90
69261;DHT22;56378;52.404;20.816;2022-11-10T05:28:39;7.90;99.90
69261;DHT22;56378;52.404;20.816;2022-11-10T05:31:06;7.90;99.90
69261;DHT22;56378;52.404;20.816;2022-11-10T05:33:32;7.90;99.90
69261;DHT22;56378;52.404;20.816;2022-11-10T05:35:58;7.90;99.90
69261;DHT22;56378;52.404;20.816;2022-11-10T05:38:24;7.90;99.90
69261;DHT22;56378;52.404;20.816;2022-11-10T05:40:50;7.90;99.90
69261;DHT22;56378;52.404;20.816;2022-11-10T05:43:16;7.90;99.90
69261;DHT22;56378;52.404;20.816;2022-11-10T05:45:42;7.90;99.90
69261;DHT22;56378;52.404;20.816;2022-11-10T05:48:08;8.00;99.90
69261;DHT22;56378;52.404;20.816;2022-11-10T05:50:34;8.00;99.90
69261;DHT22;56378;52.404;20.816;2022-11-10T05:53:02;8.00;99.90
69261;DHT22;56378;52.404;20.816;2022-11-10T05:55:29;8.00;99.90
69261;DHT22;56378;52.404;20.816;2022-11-10T05:57:56;8.00;99.90
69261;DHT22;56378;52.404;20.816;2022-11-10T06:00:25;8.00;99.90
69261;DHT22;56378;52.404;20.816;2022-11-10T06:03:02;8.00;99.90
69261;DHT22;56378;52.404;20.816;2022-11-10T06:05:33;8.00;99.90
69261;DHT22;56378;52.404;20.816;2022-11-10T06:08:01;8.00;99.90
69261;DHT22;56378;52.404;20.816;2022-11-10T06:10:50;8.00;99.90
69261;DHT22;56378;52.404;20.816;2022-11-10T06:13:16;8.00;99.90
69261;DHT22;56378;52.404;20.816;2022-11-10T06:15:42;8.00;99.90
69261;DHT22;56378;52.404;20.816;2022-11-10T06:18:07;8.00;99.90
69261;DHT22;56378;52.404;20.816;2022-11-10T06:20:33;8.00;99.90
69261;DHT22;56378;52.404;20.816;2022-11-10T06:23:08;8.00;99.90
69261;DHT22;56378;52.404;20.816;2022-11-10T06:25:37;8.00;99.90
69261;DHT22;56378;52.404;20.816;2022-11-10T06:28:08;8.00;99.90
69261;DHT22;56378;52.404;20.816;2022-11-10T06:30:38;8.00;99.90
69261;DHT22;56378;52.404;20.816;2022-11-10T06:33:04;8.00;99.90
69261;DHT22;56378;52.404;20.816;2022-11-10T06:35:30;8.00;99.90
69261;DHT22;56378;52.404;20.816;2022-11-10T06:38:04;8.10;99.90
69261;DHT22;56378;52.404;20.816;2022-11-10T06:40:30;8.10;99.90
69261;DHT22;56378;52.404;20.816;2022-11-10T06:43:00;8.10;99.90
69261;DHT22;56378;52.404;20.816;2022-11-10T06:45:26;8.10;99.90
69261;DHT22;56378;52.404;20.816;2022-11-10T06:48:07;8.10;99.90
69261;DHT22;56378;52.404;20.816;2022-11-10T06:50:34;8.10;99.90
69261;DHT22;56378;52.404;20.816;2022-11-10T06:53:00;8.10;99.90
69261;DHT22;56378;52.404;20.816;2022-11-10T06:55:37;8.10;99.90
69261;DHT22;56378;52.404;20.816;2022-11-10T06:58:02;8.20;99.90
69261;DHT22;56378;52.404;20.816;2022-11-10T07:00:28;8.20;99.90
69261;DHT22;56378;52.404;20.816;2022-11-10T07:02:59;8.10;99.90
69261;DHT22;56378;52.404;20.816;2022-11-10T07:05:25;8.20;99.90
69261;DHT22;56378;52.404;20.816;2022-11-10T07:07:51;8.20;99.90
69261;DHT22;56378;52.404;20.816;2022-11-10T07:10:17;8.20;99.90
69261;DHT22;56378;52.404;20.816;2022-11-10T07:12:42;8.20;99.90
69261;DHT22;56378;52.404;20.816;2022-11-10T07:15:08;8.20;99.90
69261;DHT22;56378;52.404;20.816;2022-11-10T07:17:40;8.20;99.90
69261;DHT22;56378;52.404;20.816;2022-11-10T07:20:07;8.20;99.90
69261;DHT22;56378;52.404;20.816;2022-11-10T07:22:33;8.20;99.90
69261;DHT22;56378;52.404;20.816;2022-11-10T07:25:00;8.20;99.90
69261;DHT22;56378;52.404;20.816;2022-11-10T07:27:25;8.20;99.90
69261;DHT22;56378;52.404;20.816;2022-11-10T07:29:51;8.30;99.90
69261;DHT22;56378;52.404;20.816;2022-11-10T07:32:17;8.30;99.90
69261;DHT22;56378;52.404;20.816;2022-11-10T07:34:42;8.30;99.90
69261;DHT22;56378;52.404;20.816;2022-11-10T07:37:08;8.30;99.90
69261;DHT22;56378;52.404;20.816;2022-11-10T07:39:34;8.30;99.90
69261;DHT22;56378;52.404;20.816;2022-11-10T07:41:59;8.30;99.90
69261;DHT22;56378;52.404;20.816;2022-11-10T07:44:25;8.40;99.90
69261;DHT22;56378;52.404;20.816;2022-11-10T07:46:52;8.40;99.90
69261;DHT22;56378;52.404;20.816;2022-11-10T07:49:17;8.40;99.90
69261;DHT22;56378;52.404;20.816;2022-11-10T07:51:43;8.40;99.90
69261;DHT22;56378;52.404;20.816;2022-11-10T07:54:11;8.50;99.90
69261;DHT22;56378;52.404;20.816;2022-11-10T07:56:37;8.40;99.90
69261;DHT22;56378;52.404;20.816;2022-11-10T07:59:02;8.50;99.90
69261;DHT22;56378;52.404;20.816;2022-11-10T08:01:29;8.50;99.90
69261;DHT22;56378;52.404;20.816;2022-11-10T08:03:55;8.40;99.90
69261;DHT22;56378;52.404;20.816;2022-11-10T08:06:20;8.50;99.90
69261;DHT22;56378;52.404;20.816;2022-11-10T08:08:46;8.50;99.90
69261;DHT22;56378;52.404;20.816;2022-11-10T08:11:12;8.50;99.90
69261;DHT22;56378;52.404;20.816;2022-11-10T08:13:38;8.50;99.90
69261;DHT22;56378;52.404;20.816;2022-11-10T08:16:04;8.50;99.90
69261;DHT22;56378;52.404;20.816;2022-11-10T08:18:30;8.60;99.90
69261;DHT22;56378;52.404;20.816;2022-11-10T08:20:58;8.60;99.90
69261;DHT22;56378;52.404;20.816;2022-11-10T08:23:27;8.60;99.90
69261;DHT22;56378;52.404;20.816;2022-11-10T08:25:57;8.60;99.90
69261;DHT22;56378;52.404;20.816;2022-11-10T08:28:23;8.60;99.90
69261;DHT22;56378;52.404;20.816;2022-11-10T08:30:49;8.60;99.90
69261;DHT22;56378;52.404;20.816;2022-11-10T08:33:16;8.70;99.90
69261;DHT22;56378;52.404;20.816;2022-11-10T08:35:44;8.70;99.90
69261;DHT22;56378;52.404;20.816;2022-11-10T08:38:16;8.70;99.90
69261;DHT22;56378;52.404;20.816;2022-11-10T08:40:43;8.70;99.90
69261;DHT22;56378;52.404;20.816;2022-11-10T08:43:09;8.70;99.90
69261;DHT22;56378;52.404;20.816;2022-11-10T08:45:38;8.70;99.90
69261;DHT22;56378;52.404;20.816;2022-11-10T08:48:16;8.70;99.90
69261;DHT22;56378;52.404;20.816;2022-11-10T08:50:42;8.80;99.90
69261;DHT22;56378;52.404;20.816;2022-11-10T08:53:13;8.80;99.90
69261;DHT22;56378;52.404;20.816;2022-11-10T08:55:40;8.80;99.90
69261;DHT22;56378;52.404;20.816;2022-11-10T08:58:09;8.80;99.90
69261;DHT22;56378;52.404;20.816;2022-11-10T09:00:35;8.80;99.90
69261;DHT22;56378;52.404;20.816;2022-11-10T09:03:09;8.80;99.90
69261;DHT22;56378;52.404;20.816;2022-11-10T09:05:37;8.80;99.90
69261;DHT22;56378;52.404;20.816;2022-11-10T09:08:03;8.80;99.90
69261;DHT22;56378;52.404;20.816;2022-11-10T09:10:30;8.80;99.90
69261;DHT22;56378;52.404;20.816;2022-11-10T09:13:00;8.80;99.90
69261;DHT22;56378;52.404;20.816;2022-11-10T09:15:27;8.80;99.90
69261;DHT22;56378;52.404;20.816;2022-11-10T09:17:56;8.90;99.90
69261;DHT22;56378;52.404;20.816;2022-11-10T09:20:21;8.90;99.90
69261;DHT22;56378;52.404;20.816;2022-11-10T09:22:47;8.90;99.90
69261;DHT22;56378;52.404;20.816;2022-11-10T09:25:13;8.90;99.90
69261;DHT22;56378;52.404;20.816;2022-11-10T09:27:38;8.90;99.90
69261;DHT22;56378;52.404;20.816;2022-11-10T09:30:05;8.90;99.90
69261;DHT22;56378;52.404;20.816;2022-11-10T09:32:31;8.90;99.90
69261;DHT22;56378;52.404;20.816;2022-11-10T09:34:57;8.90;99.90
69261;DHT22;56378;52.404;20.816;2022-11-10T09:37:24;8.90;99.90
69261;DHT22;56378;52.404;20.816;2022-11-10T09:39:49;9.00;99.90
69261;DHT22;56378;52.404;20.816;2022-11-10T09:42:38;9.00;99.90
69261;DHT22;56378;52.404;20.816;2022-11-10T09:47:59;9.00;99.90
69261;DHT22;56378;52.404;20.816;2022-11-10T09:53:45;9.00;99.90
69261;DHT22;56378;52.404;20.816;2022-11-10T09:56:21;9.00;99.90
69261;DHT22;56378;52.404;20.816;2022-11-10T09:58:50;9.00;99.90
69261;DHT22;56378;52.404;20.816;2022-11-10T10:03:55;9.10;99.90
69261;DHT22;56378;52.404;20.816;2022-11-10T10:06:23;9.10;99.90
69261;DHT22;56378;52.404;20.816;2022-11-10T10:14:35;9.20;99.90
69261;DHT22;56378;52.404;20.816;2022-11-10T10:19:48;9.20;99.90
69261;DHT22;56378;52.404;20.816;2022-11-10T10:24:44;9.20;99.90
69261;DHT22;56378;52.404;20.816;2022-11-10T10:27:14;9.20;99.90
69261;DHT22;56378;52.404;20.816;2022-11-10T10:29:45;9.20;99.90
69261;DHT22;56378;52.404;20.816;2022-11-10T10:32:12;9.30;99.90
69261;DHT22;56378;52.404;20.816;2022-11-10T10:34:41;9.30;99.90
69261;DHT22;56378;52.404;20.816;2022-11-10T10:37:38;9.40;99.90
69261;DHT22;56378;52.404;20.816;2022-11-10T10:40:12;9.40;99.90
69261;DHT22;56378;52.404;20.816;2022-11-10T10:42:39;9.40;99.90
69261;DHT22;56378;52.404;20.816;2022-11-10T10:45:20;9.50;99.90
69261;DHT22;56378;52.404;20.816;2022-11-10T10:47:48;9.50;99.90
69261;DHT22;56378;52.404;20.816;2022-11-10T10:50:30;9.50;99.90
69261;DHT22;56378;52.404;20.816;2022-11-10T10:53:23;9.50;99.90
69261;DHT22;56378;52.404;20.816;2022-11-10T10:55:58;9.50;99.90
69261;DHT22;56378;52.404;20.816;2022-11-10T10:58:35;9.50;99.90
69261;DHT22;56378;52.404;20.816;2022-11-10T11:03:46;9.50;99.90
69261;DHT22;56378;52.404;20.816;2022-11-10T11:11:37;9.60;99.90
69261;DHT22;56378;52.404;20.816;2022-11-10T11:14:23;9.70;99.90
69261;DHT22;56378;52.404;20.816;2022-11-10T11:16:58;9.70;99.90
69261;DHT22;56378;52.404;20.816;2022-11-10T11:19:32;9.70;99.90
69261;DHT22;56378;52.404;20.816;2022-11-10T11:25:19;9.70;99.90
69261;DHT22;56378;52.404;20.816;2022-11-10T11:31:21;9.70;99.90
69261;DHT22;56378;52.404;20.816;2022-11-10T11:42:02;9.80;99.90
69261;DHT22;56378;52.404;20.816;2022-11-10T11:44:47;9.80;99.90
69261;DHT22;56378;52.404;20.816;2022-11-10T11:47:40;9.80;99.90
69261;DHT22;56378;52.404;20.816;2022-11-10T11:50:31;9.80;99.90
69261;DHT22;56378;52.404;20.816;2022-11-10T11:58:45;9.90;99.90
69261;DHT22;56378;52.404;20.816;2022-11-10T12:04:21;9.90;99.90
69261;DHT22;56378;52.404;20.816;2022-11-10T12:07:12;9.80;99.90
69261;DHT22;56378;52.404;20.816;2022-11-10T12:09:46;9.80;99.90
69261;DHT22;56378;52.404;20.816;2022-11-10T12:18:09;9.90;99.90
69261;DHT22;56378;52.404;20.816;2022-11-10T12:23:44;9.90;99.90
69261;DHT22;56378;52.404;20.816;2022-11-10T12:26:45;10.00;99.90
69261;DHT22;56378;52.404;20.816;2022-11-10T12:32:25;10.00;99.90
69261;DHT22;56378;52.404;20.816;2022-11-10T12:34:59;10.00;99.90
69261;DHT22;56378;52.404;20.816;2022-11-10T12:37:43;10.00;99.90
69261;DHT22;56378;52.404;20.816;2022-11-10T12:40:23;10.00;99.90
69261;DHT22;56378;52.404;20.816;2022-11-10T12:43:02;10.00;99.90
69261;DHT22;56378;52.404;20.816;2022-11-10T12:45:56;10.00;99.90
69261;DHT22;56378;52.404;20.816;2022-11-10T12:48:21;10.00;99.90
69261;DHT22;56378;52.404;20.816;2022-11-10T12:51:16;10.00;99.90
69261;DHT22;56378;52.404;20.816;2022-11-10T12:53:58;10.00;99.90
69261;DHT22;56378;52.404;20.816;2022-11-10T12:56:39;10.00;99.90
69261;DHT22;56378;52.404;20.816;2022-11-10T13:02:00;9.90;99.90
69261;DHT22;56378;52.404;20.816;2022-11-10T13:04:27;9.90;99.90
69261;DHT22;56378;52.404;20.816;2022-11-10T13:07:12;9.90;99.90
69261;DHT22;56378;52.404;20.816;2022-11-10T13:09:40;10.00;99.90
69261;DHT22;56378;52.404;20.816;2022-11-10T13:12:17;10.00;99.90
69261;DHT22;56378;52.404;20.816;2022-11-10T13:14:44;10.00;99.90
69261;DHT22;56378;52.404;20.816;2022-11-10T13:19:58;10.00;99.90
69261;DHT22;56378;52.404;20.816;2022-11-10T13:22:35;10.00;99.90
69261;DHT22;56378;52.404;20.816;2022-11-10T13:28:07;9.90;99.90
69261;DHT22;56378;52.404;20.816;2022-11-10T13:30:41;9.90;99.90
69261;DHT22;56378;52.404;20.816;2022-11-10T13:33:34;9.90;99.90
69261;DHT22;56378;52.404;20.816;2022-11-10T13:36:06;10.00;99.90
69261;DHT22;56378;52.404;20.816;2022-11-10T13:38:41;10.00;99.90
69261;DHT22;56378;52.404;20.816;2022-11-10T13:43:48;9.90;99.90
69261;DHT22;56378;52.404;20.816;2022-11-10T13:46:14;9.90;99.90
69261;DHT22;56378;52.404;20.816;2022-11-10T13:57:29;9.90;99.90
69261;DHT22;56378;52.404;20.816;2022-11-10T14:00:01;9.90;99.90
69261;DHT22;56378;52.404;20.816;2022-11-10T14:05:08;9.90;99.90
69261;DHT22;56378;52.404;20.816;2022-11-10T14:08:03;9.90;99.90
69261;DHT22;56378;52.404;20.816;2022-11-10T14:13:31;9.90;99.90
69261;DHT22;56378;52.404;20.816;2022-11-10T14:15:58;9.90;99.90
69261;DHT22;56378;52.404;20.816;2022-11-10T14:21:02;9.90;99.90
69261;DHT22;56378;52.404;20.816;2022-11-10T14:26:55;9.90;99.90
69261;DHT22;56378;52.404;20.816;2022-11-10T14:29:36;9.80;99.90
69261;DHT22;56378;52.404;20.816;2022-11-10T14:32:21;9.80;99.90
69261;DHT22;56378;52.404;20.816;2022-11-10T14:34:51;9.80;99.90
69261;DHT22;56378;52.404;20.816;2022-11-10T14:37:41;9.80;99.90
69261;DHT22;56378;52.404;20.816;2022-11-10T14:40:18;9.70;99.90
69261;DHT22;56378;52.404;20.816;2022-11-10T14:42:46;9.70;99.90
69261;DHT22;56378;52.404;20.816;2022-11-10T14:45:23;9.70;99.90
69261;DHT22;56378;52.404;20.816;2022-11-10T14:47:54;9.70;99.90
69261;DHT22;56378;52.404;20.816;2022-11-10T14:50:32;9.60;99.90
69261;DHT22;56378;52.404;20.816;2022-11-10T14:53:30;9.60;99.90
69261;DHT22;56378;52.404;20.816;2022-11-10T14:55:59;9.50;99.90
69261;DHT22;56378;52.404;20.816;2022-11-10T14:58:37;9.50;99.90
69261;DHT22;56378;52.404;20.816;2022-11-10T15:01:04;9.40;99.90
69261;DHT22;56378;52.404;20.816;2022-11-10T15:03:38;9.40;99.90
69261;DHT22;56378;52.404;20.816;2022-11-10T15:06:08;9.30;99.90
69261;DHT22;56378;52.404;20.816;2022-11-10T15:08:35;9.30;99.90
69261;DHT22;56378;52.404;20.816;2022-11-10T15:11:02;9.20;99.90
69261;DHT22;56378;52.404;20.816;2022-11-10T15:18:45;9.20;99.90
69261;DHT22;56378;52.404;20.816;2022-11-10T15:21:16;9.20;99.90
69261;DHT22;56378;52.404;20.816;2022-11-10T15:23:53;9.20;99.90
69261;DHT22;56378;52.404;20.816;2022-11-10T15:26:25;9.20;99.90
69261;DHT22;56378;52.404;20.816;2022-11-10T15:28:52;9.10;99.90
69261;DHT22;56378;52.404;20.816;2022-11-10T15:31:29;9.20;99.90
69261;DHT22;56378;52.404;20.816;2022-11-10T15:34:01;9.20;99.90
69261;DHT22;56378;52.404;20.816;2022-11-10T15:36:37;9.20;99.90
69261;DHT22;56378;52.404;20.816;2022-11-10T15:39:16;9.20;99.90
69261;DHT22;56378;52.404;20.816;2022-11-10T15:41:57;9.20;99.90
69261;DHT22;56378;52.404;20.816;2022-11-10T15:44:35;9.20;99.90
69261;DHT22;56378;52.404;20.816;2022-11-10T15:47:17;9.20;99.90
69261;DHT22;56378;52.404;20.816;2022-11-10T15:53:31;9.20;99.90
69261;DHT22;56378;52.404;20.816;2022-11-10T15:55:57;9.20;99.90
69261;DHT22;56378;52.404;20.816;2022-11-10T15:58:23;9.20;99.90
69261;DHT22;56378;52.404;20.816;2022-11-10T16:00:49;9.20;99.90
69261;DHT22;56378;52.404;20.816;2022-11-10T16:03:20;9.20;99.90
69261;DHT22;56378;52.404;20.816;2022-11-10T16:05:47;9.20;99.90
69261;DHT22;56378;52.404;20.816;2022-11-10T16:08:18;9.20;99.90
69261;DHT22;56378;52.404;20.816;2022-11-10T16:10:49;9.20;99.90
69261;DHT22;56378;52.404;20.816;2022-11-10T16:13:20;9.20;99.90
69261;DHT22;56378;52.404;20.816;2022-11-10T16:15:47;9.20;99.90
69261;DHT22;56378;52.404;20.816;2022-11-10T16:18:15;9.20;99.90
69261;DHT22;56378;52.404;20.816;2022-11-10T16:20:41;9.20;99.90
69261;DHT22;56378;52.404;20.816;2022-11-10T16:23:07;9.20;99.90
69261;DHT22;56378;52.404;20.816;2022-11-10T16:25:44;9.20;99.90
69261;DHT22;56378;52.404;20.816;2022-11-10T16:28:21;9.20;99.90
69261;DHT22;56378;52.404;20.816;2022-11-10T16:30:48;9.20;99.90
69261;DHT22;56378;52.404;20.816;2022-11-10T16:33:21;9.20;99.90
69261;DHT22;56378;52.404;20.816;2022-11-10T16:35:56;9.20;99.90
69261;DHT22;56378;52.404;20.816;2022-11-10T16:38:30;9.20;99.90
69261;DHT22;56378;52.404;20.816;2022-11-10T16:40:58;9.20;99.90
69261;DHT22;56378;52.404;20.816;2022-11-10T16:43:25;9.20;99.90
69261;DHT22;56378;52.404;20.816;2022-11-10T16:45:53;9.20;99.90
69261;DHT22;56378;52.404;20.816;2022-11-10T16:48:25;9.20;99.90
69261;DHT22;56378;52.404;20.816;2022-11-10T16:50:54;9.20;99.90
69261;DHT22;56378;52.404;20.816;2022-11-10T16:53:30;9.10;99.90
69261;DHT22;56378;52.404;20.816;2022-11-10T16:55:57;9.10;99.90
69261;DHT22;56378;52.404;20.816;2022-11-10T16:58:24;9.10;99.90
69261;DHT22;56378;52.404;20.816;2022-11-10T17:00:50;9.00;99.90
69261;DHT22;56378;52.404;20.816;2022-11-10T17:03:29;9.00;99.90
69261;DHT22;56378;52.404;20.816;2022-11-10T17:05:55;8.90;99.90
69261;DHT22;56378;52.404;20.816;2022-11-10T17:08:29;8.90;99.90
69261;DHT22;56378;52.404;20.816;2022-11-10T17:10:56;8.80;99.90
69261;DHT22;56378;52.404;20.816;2022-11-10T17:13:23;8.80;99.90
69261;DHT22;56378;52.404;20.816;2022-11-10T17:15:50;8.80;99.90
69261;DHT22;56378;52.404;20.816;2022-11-10T17:18:24;8.70;99.90
69261;DHT22;56378;52.404;20.816;2022-11-10T17:20:51;8.60;99.90
69261;DHT22;56378;52.404;20.816;2022-11-10T17:23:21;8.50;99.90
69261;DHT22;56378;52.404;20.816;2022-11-10T17:25:48;8.50;99.90
69261;DHT22;56378;52.404;20.816;2022-11-10T17:28:16;8.40;99.90
69261;DHT22;56378;52.404;20.816;2022-11-10T17:30:42;8.30;99.90
69261;DHT22;56378;52.404;20.816;2022-11-10T17:33:12;8.20;99.90